Bei Facebook empfehlenBei Twitter postenGoogle plusPinterest

Das Wetter im Erzgebirge am 11.02.2017

Wetter und Klima am 11.02.2017 Holzhau im Erzgebirge (630m ü.NN)
Letzte gemessene Temperatur und Uhrzeit der Messung23:45:00 Uhr-2.40 °C
Temperatur (Maximum / Höchstwert) und Uhrzeit der Messung13:00:00 Uhr-0.20 °C
Temperatur (Minimum / Tiefstwert) und Uhrzeit der Messung19:30:00-2.50 °C
Errechneter Absolutwert der Temperaturschwankungen zwischen Tmin und Tmax des Tages2.30 K
Errechnete Tagesmitteltemperatur-1.98958 °C
Gesamt - Niederschlag des Tages (in flüssiger Form)0.00 Liter / m²
Luftdruck (Maximum / Höchstwert) und Zeitpunkt der Messung23:45:00 Uhr1019.40 hPa
Luftdruck (Minimum / Tiefstwert) und Zeitpunkt der Messung05:45:00 Uhr1017.20 hPa
Errechneter Absolutwert der Luftdruckschwankungen des Tages2.20 hPa
Höchste gemessene Windgeschwindigkeit und Uhrzeit der Messung04:45:00 Uhr17.64 km/h
Errechnete Windhäufigkeit in Relation zu den Messwerten des Tages57.29167 %
Niedrigste Windkühle (Windchill) und Zeitpunkt der Messung04:45:00 Uhr-7.50 °C
Taupunkt (Maximum / Höchstwert) und Uhrzeit der Messung12:45:00 Uhr-2.70 °C
Taupunkt (Minimum / Tiefstwert) und Uhrzeit der Messung18:00:00-4.20 °C
Anzahl der automatisch eingelesenen Messwerte 96

Detaillierte Wetter- und Klima- Messwerte für den 11.02.2017 in Holzhau im Erzgebirge (630m ü.NN)
ZeitTemperaturLuftdruckRel. LuftfeuchteWindWindrichtungWindchillTaupunktNiederschlag l/m²
23:45:00-2.40 °C1019.40 hPa90.00 %6.12 km/hSO-4.80 °C-4.00 °C 
23:30:00-2.40 °C1019.30 hPa90.00 %14.04 km/hW-7.20 °C-4.00 °C 
23:15:00-2.40 °C1019.20 hPa90.00 %6.84 km/hSSO-5.10 °C-4.00 °C 
23:00:00-2.40 °C1019.10 hPa90.00 %11.88 km/hS-6.70 °C-4.00 °C 
22:45:00-2.40 °C1019.10 hPa90.00 %3.24 km/hN-2.40 °C-4.00 °C 
22:30:00-2.40 °C1019.00 hPa90.00 %14.76 km/hSO-7.30 °C-4.00 °C 
22:15:00-2.30 °C1018.80 hPa90.00 %2.52 km/hSO-2.30 °C-3.90 °C 
22:00:00-2.40 °C1019.00 hPa90.00 %-4.00 °C 
21:45:00-2.40 °C1019.10 hPa90.00 %-4.00 °C 
21:30:00-2.40 °C1019.00 hPa90.00 %-4.00 °C 
21:15:00-2.40 °C1019.10 hPa90.00 %-4.00 °C 
21:00:00-2.40 °C1019.00 hPa90.00 %-4.00 °C 
20:45:00-2.40 °C1018.80 hPa90.00 %-4.00 °C 
20:30:00-2.40 °C1018.70 hPa90.00 %3.60 km/hO-2.40 °C-4.00 °C 
20:15:00-2.40 °C1018.80 hPa90.00 %-4.00 °C 
20:00:00-2.40 °C1018.80 hPa90.00 %-4.00 °C 
19:45:00-2.40 °C1018.50 hPa90.00 %-4.00 °C 
19:30:00-2.50 °C1018.50 hPa90.00 %6.48 km/hNNO-5.10 °C-4.10 °C 
19:15:00-2.50 °C1018.40 hPa90.00 %-4.10 °C 
19:00:00-2.50 °C1018.50 hPa90.00 %-4.10 °C 
18:45:00-2.50 °C1018.60 hPa90.00 %-4.10 °C 
18:30:00-2.50 °C1018.70 hPa90.00 %1.08 km/hW-2.50 °C-4.10 °C 
18:15:00-2.50 °C1018.40 hPa90.00 %2.52 km/hO-2.50 °C-4.10 °C 
18:00:00-2.50 °C1018.20 hPa89.00 %2.88 km/hNW-2.50 °C-4.20 °C 
17:45:00-2.50 °C1018.10 hPa89.00 %-4.20 °C 
17:30:00-2.50 °C1018.20 hPa89.00 %-4.20 °C 
17:15:00-2.40 °C1018.10 hPa89.00 %-4.10 °C 
17:00:00-2.40 °C1018.00 hPa89.00 %2.88 km/hSO-2.40 °C-4.10 °C 
16:45:00-2.20 °C1017.90 hPa88.00 %5.04 km/hO-4.10 °C-4.10 °C 
16:30:00-2.10 °C1018.00 hPa88.00 %-4.00 °C 
16:15:00-2.10 °C1018.10 hPa87.00 %8.64 km/hOSO-5.40 °C-4.20 °C 
16:00:00-1.90 °C1018.20 hPa87.00 %3.96 km/hOSO-1.90 °C-4.00 °C 
15:45:00-1.70 °C1018.40 hPa87.00 %5.40 km/hS-3.70 °C-3.80 °C 
15:30:00-1.60 °C1018.50 hPa86.00 %5.40 km/hSO-3.60 °C-3.90 °C 
15:15:00-1.60 °C1018.30 hPa86.00 %-3.90 °C 
15:00:00-1.20 °C1018.40 hPa86.00 %7.20 km/hSO-3.90 °C-3.50 °C 
14:45:00-1.10 °C1018.30 hPa85.00 %1.80 km/hSO-1.10 °C-3.60 °C 
14:30:00-1.10 °C1018.50 hPa85.00 %-3.60 °C 
14:15:00-1.20 °C1018.40 hPa85.00 %-3.70 °C 
14:00:00-1.10 °C1018.50 hPa85.00 %8.64 km/hOSO-4.20 °C-3.60 °C 
13:45:00-0.90 °C1018.50 hPa85.00 %1.80 km/hSO-0.90 °C-3.40 °C 
13:30:00-1.00 °C1018.30 hPa84.00 %-3.60 °C 
13:15:00-0.70 °C1018.30 hPa83.00 %11.52 km/hS-4.50 °C-3.50 °C 
13:00:00-0.20 °C1018.10 hPa84.00 %6.84 km/hSO-2.60 °C-2.80 °C 
12:45:00-0.20 °C1017.90 hPa85.00 %-2.70 °C 
12:30:00-0.50 °C1017.90 hPa86.00 %-2.80 °C 
12:15:00-0.60 °C1018.00 hPa86.00 %-2.90 °C 
12:00:00-0.90 °C1018.00 hPa86.00 %-3.20 °C 
11:45:00-0.80 °C1018.30 hPa87.00 %-2.90 °C 
11:30:00-1.10 °C1018.40 hPa87.00 %2.52 km/hSSO-1.10 °C-3.20 °C 
11:15:00-1.20 °C1018.40 hPa87.00 %-3.30 °C 
11:00:00-1.50 °C1018.20 hPa88.00 %3.96 km/hSSO-1.50 °C-3.40 °C 
10:45:00-1.70 °C1018.20 hPa88.00 %-3.60 °C 
10:30:00-1.90 °C1018.20 hPa89.00 %-3.70 °C 
10:15:00-2.10 °C1018.40 hPa89.00 %-3.90 °C 
10:00:00-2.20 °C1018.50 hPa89.00 %1.80 km/hSSO-2.20 °C-4.00 °C 
09:45:00-2.20 °C1018.40 hPa89.00 %-4.00 °C 
09:30:00-2.20 °C1018.30 hPa89.00 %3.60 km/hSSO-2.20 °C-4.00 °C 
09:15:00-2.20 °C1018.10 hPa90.00 %-3.80 °C 
09:00:00-2.20 °C1017.90 hPa90.00 %-3.80 °C 
08:45:00-2.30 °C1017.90 hPa90.00 %-3.90 °C 
08:30:00-2.40 °C1017.90 hPa90.00 %-4.00 °C 
08:15:00-2.40 °C1017.70 hPa90.00 %2.16 km/hSSO-2.40 °C-4.00 °C 
08:00:00-2.40 °C1017.60 hPa91.00 %-3.80 °C 
07:45:00-2.50 °C1017.40 hPa90.00 %2.88 km/hSSO-2.50 °C-4.10 °C 
07:30:00-2.40 °C1017.40 hPa90.00 %-4.00 °C 
07:15:00-2.40 °C1017.40 hPa90.00 %1.80 km/hSSO-2.40 °C-4.00 °C 
07:00:00-2.40 °C1017.40 hPa90.00 %-4.00 °C 
06:45:00-2.40 °C1017.50 hPa90.00 %-4.00 °C 
06:30:00-2.40 °C1017.50 hPa90.00 %3.24 km/hSSO-2.40 °C-4.00 °C 
06:15:00-2.30 °C1017.40 hPa90.00 %-3.90 °C 
06:00:00-2.20 °C1017.40 hPa90.00 %9.36 km/hSSO-5.80 °C-3.80 °C 
05:45:00-2.20 °C1017.20 hPa90.00 %5.04 km/hSSO-4.10 °C-3.80 °C 
05:30:00-2.20 °C1017.30 hPa90.00 %1.80 km/hSSO-2.20 °C-3.80 °C 
05:15:00-2.20 °C1017.30 hPa90.00 %5.76 km/hSSO-4.40 °C-3.80 °C 
05:00:00-2.20 °C1017.30 hPa90.00 %9.00 km/hSSO-5.60 °C-3.80 °C 
04:45:00-2.10 °C1017.30 hPa90.00 %17.64 km/hSSO-7.50 °C-3.70 °C 
04:30:00-2.10 °C1017.40 hPa89.00 %1.80 km/hSSO-2.10 °C-3.90 °C 
04:15:00-2.10 °C1017.20 hPa90.00 %4.68 km/hSSO-2.10 °C-3.70 °C 
04:00:00-2.10 °C1017.50 hPa89.00 %12.60 km/hSSO-6.50 °C-3.90 °C 
03:45:00-2.10 °C1017.50 hPa89.00 %7.92 km/hSSO-5.20 °C-3.90 °C 
03:30:00-2.10 °C1017.40 hPa89.00 %3.96 km/hSSO-2.10 °C-3.90 °C 
03:15:00-2.10 °C1017.50 hPa89.00 %0.72 km/hSSO-2.10 °C-3.90 °C 
03:00:00-2.10 °C1017.60 hPa89.00 %5.04 km/hSSO-4.00 °C-3.90 °C 
02:45:00-2.10 °C1017.50 hPa89.00 %6.12 km/hSSO-4.50 °C-3.90 °C 
02:30:00-2.10 °C1017.70 hPa89.00 %7.92 km/hSSO-5.20 °C-3.90 °C 
02:15:00-2.10 °C1017.90 hPa89.00 %5.04 km/hSSO-4.00 °C-3.90 °C 
02:00:00-2.00 °C1017.90 hPa89.00 %10.44 km/hSSO-5.80 °C-3.80 °C 
01:45:00-2.10 °C1017.80 hPa89.00 %4.32 km/hSSO-2.10 °C-3.90 °C 
01:30:00-1.90 °C1017.80 hPa89.00 %-3.70 °C 
01:15:00-1.90 °C1017.90 hPa89.00 %-3.70 °C 
01:00:00-1.90 °C1017.80 hPa89.00 %2.16 km/hSSO-1.90 °C-3.70 °C 
00:45:00-1.90 °C1018.00 hPa89.00 %1.08 km/hSSO-1.90 °C-3.70 °C 
00:30:00-1.90 °C1018.00 hPa88.00 %2.52 km/hSSO-1.90 °C-3.80 °C 
00:15:00-1.90 °C1018.00 hPa88.00 %8.64 km/hSSO-5.20 °C-3.80 °C 
00:00:00-1.90 °C1017.90 hPa88.00 %9.00 km/hSSO-5.30 °C-3.80 °C 

Permanenter Link zu dieser Seite: Wetter im Erzgebirge am 11.02.2017
Performance-Info: Die Erstellung der Seite / Statistik(en) / Tabelle(n) erforderte 5 Datenbankserver-Abfrage(n) und dauerte 77 Millisekunden. (Dieser Messwert ist von der Gesamt-Auslastung des Servers abhängig.)
Erzgebirge - Wetter | Erzgebirge - Wetter (Mobilgeräte) | Komplette Klimadatenbank